KWST/WST METAR and TAF weather

Enter ICAO airport designator
Station Type Date Time Source
KWST METAR 2020/08/15 16:53 UTC NOAA

KWST 151653Z AUTO 03009G17KT 10SM OVC029 24/16 A3004 RMK AO2 SLP173 T02440156 $


Station Type Date Time Source
KWST Decoded METAR 2020/08/15 16:53 UTC NOAA

WESTERLY STATE AIRPORT, RI, United States (KWST) 41-21N 071-48W 21M
Aug 15, 2020 - 12:53 PM EDT / 2020.08.15 1653 UTC
Wind: from the NNE (030 degrees) at 10 MPH (9 KT) gusting to 20 MPH (17 KT):0
Visibility: 10 mile(s):0
Sky conditions: overcast
Temperature: 75.9 F (24.4 C)
Dew Point: 60.1 F (15.6 C)
Relative Humidity: 57%
Pressure (altimeter): 30.04 in. Hg (1017 hPa)
ob: KWST 151653Z AUTO 03009G17KT 10SM OVC029 24/16 A3004 RMK AO2 SLP173 T02440156
cycle: 17

Station Type Date Time Source
KWST TAF UTC NOAA

Error!

Example: see airport list